sensor_id;sensor_type;location;lat;lon;timestamp;pressure;altitude;pressure_sealevel;temperature;humidity
13476;BME280;6810;63.824;20.288;2023-04-01T00:00:07;101323.59;;;0.61;72.33
13476;BME280;6810;63.824;20.288;2023-04-01T00:02:37;101292.31;;;0.40;72.47
13476;BME280;6810;63.824;20.288;2023-04-01T00:05:05;101329.72;;;0.58;72.15
13476;BME280;6810;63.824;20.288;2023-04-01T00:07:32;101333.22;;;0.57;72.57
13476;BME280;6810;63.824;20.288;2023-04-01T00:09:59;101337.59;;;0.55;72.68
13476;BME280;6810;63.824;20.288;2023-04-01T00:12:26;101336.78;;;0.53;72.51
13476;BME280;6810;63.824;20.288;2023-04-01T00:14:53;101336.78;;;0.52;72.68
13476;BME280;6810;63.824;20.288;2023-04-01T00:17:20;101339.41;;;0.50;72.37
13476;BME280;6810;63.824;20.288;2023-04-01T00:19:48;101318.56;;;0.34;72.50
13476;BME280;6810;63.824;20.288;2023-04-01T00:22:15;101349.06;;;0.47;72.58
13476;BME280;6810;63.824;20.288;2023-04-01T00:24:42;101350.78;;;0.46;72.11
13476;BME280;6810;63.824;20.288;2023-04-01T00:27:09;101354.31;;;0.45;72.60
13476;BME280;6810;63.824;20.288;2023-04-01T00:29:36;101358.69;;;0.43;72.39
13476;BME280;6810;63.824;20.288;2023-04-01T00:32:03;101367.44;;;0.42;72.89
13476;BME280;6810;63.824;20.288;2023-04-01T00:34:30;101369.19;;;0.42;72.56
13476;BME280;6810;63.824;20.288;2023-04-01T00:36:58;101376.22;;;0.40;73.01
13476;BME280;6810;63.824;20.288;2023-04-01T00:39:25;101378.84;;;0.38;72.86
13476;BME280;6810;63.824;20.288;2023-04-01T00:41:53;101373.59;;;0.37;73.03
13476;BME280;6810;63.824;20.288;2023-04-01T00:46:50;101320.53;;;-0.02;72.70
13476;BME280;6810;63.824;20.288;2023-04-01T00:49:22;101360.59;;;0.19;73.07
13476;BME280;6810;63.824;20.288;2023-04-01T00:51:53;101387.59;;;0.31;72.76
13476;BME280;6810;63.824;20.288;2023-04-01T00:54:24;101386.72;;;0.29;72.74
13476;BME280;6810;63.824;20.288;2023-04-01T00:56:57;101289.25;;;-0.30;72.72
13476;BME280;6810;63.824;20.288;2023-04-01T00:59:45;101391.13;;;0.26;73.15
13476;BME280;6810;63.824;20.288;2023-04-01T01:02:14;101382.44;;;0.16;72.96
13476;BME280;6810;63.824;20.288;2023-04-01T01:04:42;101399.00;;;0.24;72.97
13476;BME280;6810;63.824;20.288;2023-04-01T01:07:24;101395.53;;;0.21;73.24
13476;BME280;6810;63.824;20.288;2023-04-01T01:10:32;101397.28;;;0.20;73.29
13476;BME280;6810;63.824;20.288;2023-04-01T01:23:23;101406.94;;;0.12;73.31
13476;BME280;6810;63.824;20.288;2023-04-01T01:28:55;101415.69;;;0.08;73.81
13476;BME280;6810;63.824;20.288;2023-04-01T01:31:51;101413.94;;;0.07;73.50
13476;BME280;6810;63.824;20.288;2023-04-01T01:34:32;101427.06;;;0.03;73.52
13476;BME280;6810;63.824;20.288;2023-04-01T01:37:06;101424.44;;;0.04;73.45
13476;BME280;6810;63.824;20.288;2023-04-01T01:39:36;101430.56;;;0.03;73.60
13476;BME280;6810;63.824;20.288;2023-04-01T01:42:06;101430.59;;;0.00;73.34
13476;BME280;6810;63.824;20.288;2023-04-01T01:44:35;101438.44;;;-0.03;73.28
13476;BME280;6810;63.824;20.288;2023-04-01T01:47:05;101437.56;;;-0.04;73.32
13476;BME280;6810;63.824;20.288;2023-04-01T01:49:33;101430.59;;;-0.09;73.31
13476;BME280;6810;63.824;20.288;2023-04-01T01:52:02;101446.31;;;-0.08;73.26
13476;BME280;6810;63.824;20.288;2023-04-01T01:54:30;101452.44;;;-0.10;73.14
13476;BME280;6810;63.824;20.288;2023-04-01T01:57:06;101389.72;;;-0.48;73.48
13476;BME280;6810;63.824;20.288;2023-04-01T01:59:38;101453.34;;;-0.14;73.60
13476;BME280;6810;63.824;20.288;2023-04-01T02:02:08;101448.97;;;-0.17;73.42
13476;BME280;6810;63.824;20.288;2023-04-01T02:04:42;101452.47;;;-0.18;72.86
13476;BME280;6810;63.824;20.288;2023-04-01T02:07:18;101453.34;;;-0.20;73.01
13476;BME280;6810;63.824;20.288;2023-04-01T02:09:48;101462.06;;;-0.23;73.13
13476;BME280;6810;63.824;20.288;2023-04-01T02:12:15;101474.31;;;-0.23;73.07
13476;BME280;6810;63.824;20.288;2023-04-01T02:15:03;101480.41;;;-0.27;73.51
13476;BME280;6810;63.824;20.288;2023-04-01T02:17:33;101470.84;;;-0.34;72.44
13476;BME280;6810;63.824;20.288;2023-04-01T02:20:11;101467.38;;;-0.42;73.53
13476;BME280;6810;63.824;20.288;2023-04-01T02:22:44;101488.28;;;-0.35;72.74
13476;BME280;6810;63.824;20.288;2023-04-01T02:25:35;101466.50;;;-0.52;73.47
13476;BME280;6810;63.824;20.288;2023-04-01T02:28:23;101420.31;;;-0.84;73.00
13476;BME280;6810;63.824;20.288;2023-04-01T02:31:12;101490.03;;;-0.43;73.39
13476;BME280;6810;63.824;20.288;2023-04-01T02:34:02;101409.00;;;-0.92;72.98
13476;BME280;6810;63.824;20.288;2023-04-01T02:36:50;101490.06;;;-0.53;73.64
13476;BME280;6810;63.824;20.288;2023-04-01T02:39:37;101504.03;;;-0.51;72.93
13476;BME280;6810;63.824;20.288;2023-04-01T02:42:24;101490.06;;;-0.61;73.12
13476;BME280;6810;63.824;20.288;2023-04-01T02:45:12;101509.28;;;-0.59;73.02
13476;BME280;6810;63.824;20.288;2023-04-01T02:48:00;101508.41;;;-0.61;73.16
13476;BME280;6810;63.824;20.288;2023-04-01T02:50:48;101504.06;;;-0.71;73.65
13476;BME280;6810;63.824;20.288;2023-04-01T02:53:35;101510.13;;;-0.69;73.04
13476;BME280;6810;63.824;20.288;2023-04-01T02:56:22;101500.56;;;-0.79;73.63
13476;BME280;6810;63.824;20.288;2023-04-01T02:59:09;101491.81;;;-0.87;73.62
13476;BME280;6810;63.824;20.288;2023-04-01T03:01:56;101515.38;;;-0.79;73.77
13476;BME280;6810;63.824;20.288;2023-04-01T03:04:43;101524.09;;;-0.82;73.51
13476;BME280;6810;63.824;20.288;2023-04-01T03:07:30;101522.38;;;-0.86;73.17
13476;BME280;6810;63.824;20.288;2023-04-01T03:10:17;101525.84;;;-0.90;73.48
13476;BME280;6810;63.824;20.288;2023-04-01T03:13:04;101529.34;;;-0.92;73.41
13476;BME280;6810;63.824;20.288;2023-04-01T03:15:51;101508.38;;;-1.10;73.00
13476;BME280;6810;63.824;20.288;2023-04-01T03:18:39;101535.41;;;-1.01;73.47
13476;BME280;6810;63.824;20.288;2023-04-01T03:21:25;101519.69;;;-1.13;72.99
13476;BME280;6810;63.824;20.288;2023-04-01T03:24:12;101532.78;;;-1.13;73.00
13476;BME280;6810;63.824;20.288;2023-04-01T03:27:00;101538.88;;;-1.17;73.07
13476;BME280;6810;63.824;20.288;2023-04-01T03:29:46;101551.06;;;-1.16;73.22
13476;BME280;6810;63.824;20.288;2023-04-01T03:32:40;101545.81;;;-1.23;73.48
13476;BME280;6810;63.824;20.288;2023-04-01T03:35:30;101520.50;;;-1.42;72.48
13476;BME280;6810;63.824;20.288;2023-04-01T03:38:18;101541.44;;;-1.39;73.12
13476;BME280;6810;63.824;20.288;2023-04-01T03:41:05;101518.72;;;-1.57;73.44
13476;BME280;6810;63.824;20.288;2023-04-01T03:43:53;101567.59;;;-1.35;73.66
13476;BME280;6810;63.824;20.288;2023-04-01T03:46:40;101574.53;;;-1.38;73.59
13476;BME280;6810;63.824;20.288;2023-04-01T03:49:28;101571.91;;;-1.41;73.50
13476;BME280;6810;63.824;20.288;2023-04-01T03:52:15;101571.03;;;-1.45;73.13
13476;BME280;6810;63.824;20.288;2023-04-01T03:55:02;101567.50;;;-1.56;72.91
13476;BME280;6810;63.824;20.288;2023-04-01T03:57:50;101581.44;;;-1.54;73.05
13476;BME280;6810;63.824;20.288;2023-04-01T04:00:37;101574.44;;;-1.62;73.03
13476;BME280;6810;63.824;20.288;2023-04-01T04:03:24;101586.63;;;-1.60;72.37
13476;BME280;6810;63.824;20.288;2023-04-01T04:06:13;101584.00;;;-1.66;71.95
13476;BME280;6810;63.824;20.288;2023-04-01T04:09:01;101597.94;;;-1.67;72.18
13476;BME280;6810;63.824;20.288;2023-04-01T04:11:48;101603.16;;;-1.71;71.90
13476;BME280;6810;63.824;20.288;2023-04-01T04:14:35;101607.47;;;-1.75;72.33
13476;BME280;6810;63.824;20.288;2023-04-01T04:17:22;101605.72;;;-1.79;72.30
13476;BME280;6810;63.824;20.288;2023-04-01T04:20:09;101592.56;;;-1.93;71.91
13476;BME280;6810;63.824;20.288;2023-04-01T04:22:56;101585.56;;;-2.00;72.72
13476;BME280;6810;63.824;20.288;2023-04-01T04:25:57;101607.38;;;-1.90;71.16
13476;BME280;6810;63.824;20.288;2023-04-01T04:28:57;101614.31;;;-1.92;71.71
13476;BME280;6810;63.824;20.288;2023-04-01T04:31:44;101611.69;;;-1.98;72.34
13476;BME280;6810;63.824;20.288;2023-04-01T04:34:31;101582.81;;;-2.21;71.65
13476;BME280;6810;63.824;20.288;2023-04-01T04:37:19;101589.75;;;-2.23;71.53
13476;BME280;6810;63.824;20.288;2023-04-01T04:40:07;101600.22;;;-2.15;71.76
13476;BME280;6810;63.824;20.288;2023-04-01T04:42:54;101613.34;;;-2.08;71.63
13476;BME280;6810;63.824;20.288;2023-04-01T04:45:42;101621.16;;;-2.11;71.83
13476;BME280;6810;63.824;20.288;2023-04-01T04:48:29;101608.88;;;-2.24;71.86
13476;BME280;6810;63.824;20.288;2023-04-01T04:51:17;101637.69;;;-2.15;71.30
13476;BME280;6810;63.824;20.288;2023-04-01T04:54:05;101626.31;;;-2.18;72.12
13476;BME280;6810;63.824;20.288;2023-04-01T04:56:55;101628.06;;;-2.20;71.22
13476;BME280;6810;63.824;20.288;2023-04-01T04:59:50;101633.28;;;-2.20;70.75
13476;BME280;6810;63.824;20.288;2023-04-01T05:02:56;101637.63;;;-2.22;72.07
13476;BME280;6810;63.824;20.288;2023-04-01T05:05:51;101641.09;;;-2.25;70.97
13476;BME280;6810;63.824;20.288;2023-04-01T05:08:39;101645.41;;;-2.27;70.21
13476;BME280;6810;63.824;20.288;2023-04-01T05:11:27;101638.34;;;-2.35;71.18
13476;BME280;6810;63.824;20.288;2023-04-01T05:14:17;101582.38;;;-2.70;71.21
13476;BME280;6810;63.824;20.288;2023-04-01T05:17:12;101566.66;;;-2.79;70.94
13476;BME280;6810;63.824;20.288;2023-04-01T05:19:59;101647.09;;;-2.32;70.55
13476;BME280;6810;63.824;20.288;2023-04-01T05:22:46;101649.72;;;-2.32;70.94
13476;BME280;6810;63.824;20.288;2023-04-01T05:25:33;101560.56;;;-2.81;70.18
13476;BME280;6810;63.824;20.288;2023-04-01T05:28:21;101638.34;;;-2.38;69.72
13476;BME280;6810;63.824;20.288;2023-04-01T05:31:08;101634.00;;;-2.36;70.72
13476;BME280;6810;63.824;20.288;2023-04-01T05:33:57;101643.59;;;-2.32;70.70
13476;BME280;6810;63.824;20.288;2023-04-01T05:36:44;101563.22;;;-2.77;70.64
13476;BME280;6810;63.824;20.288;2023-04-01T05:39:31;101646.22;;;-2.31;69.75
13476;BME280;6810;63.824;20.288;2023-04-01T05:42:18;101627.00;;;-2.42;69.87
13476;BME280;6810;63.824;20.288;2023-04-01T05:45:06;101649.75;;;-2.27;69.52
13476;BME280;6810;63.824;20.288;2023-04-01T05:48:28;101661.09;;;-2.25;70.38
13476;BME280;6810;63.824;20.288;2023-04-01T05:51:16;101631.38;;;-2.39;69.74
13476;BME280;6810;63.824;20.288;2023-04-01T05:54:04;101661.13;;;-2.22;69.06
13476;BME280;6810;63.824;20.288;2023-04-01T05:56:51;101657.63;;;-2.20;69.72
13476;BME280;6810;63.824;20.288;2023-04-01T05:59:39;101657.63;;;-2.20;68.98
13476;BME280;6810;63.824;20.288;2023-04-01T06:02:26;101665.50;;;-2.17;68.72
13476;BME280;6810;63.824;20.288;2023-04-01T06:05:22;101661.19;;;-2.12;69.07
13476;BME280;6810;63.824;20.288;2023-04-01T06:08:12;101648.09;;;-2.19;69.42
13476;BME280;6810;63.824;20.288;2023-04-01T06:11:30;101668.19;;;-2.06;68.65
13476;BME280;6810;63.824;20.288;2023-04-01T06:14:37;101604.44;;;-2.35;69.39
13476;BME280;6810;63.824;20.288;2023-04-01T06:42:24;101665.88;;;-1.67;68.15
13476;BME280;6810;63.824;20.288;2023-04-01T06:55:46;101665.94;;;-1.56;68.83
13476;BME280;6810;63.824;20.288;2023-04-01T07:01:45;101617.88;;;-1.83;67.73
13476;BME280;6810;63.824;20.288;2023-04-01T07:04:38;101679.09;;;-1.40;67.96
13476;BME280;6810;63.824;20.288;2023-04-01T07:07:41;101689.59;;;-1.29;67.64
13476;BME280;6810;63.824;20.288;2023-04-01T07:11:04;101687.91;;;-1.24;67.26
13476;BME280;6810;63.824;20.288;2023-04-01T07:14:32;101686.19;;;-1.18;67.63
13476;BME280;6810;63.824;20.288;2023-04-01T07:17:23;101661.75;;;-1.27;67.22
13476;BME280;6810;63.824;20.288;2023-04-01T07:20:35;101683.63;;;-1.10;67.91
13476;BME280;6810;63.824;20.288;2023-04-01T07:23:26;101694.94;;;-1.04;67.74
13476;BME280;6810;63.824;20.288;2023-04-01T07:26:30;101694.97;;;-0.98;67.11
13476;BME280;6810;63.824;20.288;2023-04-01T07:29:21;101684.56;;;-0.93;67.46
13476;BME280;6810;63.824;20.288;2023-04-01T07:32:13;101688.03;;;-0.88;66.87
13476;BME280;6810;63.824;20.288;2023-04-01T07:35:40;101685.44;;;-0.82;66.66
13476;BME280;6810;63.824;20.288;2023-04-01T07:45:24;101678.53;;;-0.65;66.86
13476;BME280;6810;63.824;20.288;2023-04-01T07:48:31;101674.19;;;-0.65;66.52
13476;BME280;6810;63.824;20.288;2023-04-01T07:57:40;101679.44;;;-0.44;66.57
13476;BME280;6810;63.824;20.288;2023-04-01T08:00:44;101679.44;;;-0.36;65.90
13476;BME280;6810;63.824;20.288;2023-04-01T08:06:53;101682.06;;;-0.23;66.15
13476;BME280;6810;63.824;20.288;2023-04-01T08:10:29;101677.72;;;-0.12;59.05
13476;BME280;6810;63.824;20.288;2023-04-01T08:13:48;101687.34;;;0.00;61.77
13476;BME280;6810;63.824;20.288;2023-04-01T08:20:26;101683.84;;;0.15;62.74
13476;BME280;6810;63.824;20.288;2023-04-01T08:29:21;101682.06;;;0.33;63.04
13476;BME280;6810;63.824;20.288;2023-04-01T08:32:14;101682.94;;;0.38;63.21
13476;BME280;6810;63.824;20.288;2023-04-01T08:35:16;101672.47;;;0.35;63.06
13476;BME280;6810;63.824;20.288;2023-04-01T08:49:01;101688.13;;;0.70;62.59
13476;BME280;6810;63.824;20.288;2023-04-01T08:54:44;101687.19;;;0.83;62.77
13476;BME280;6810;63.824;20.288;2023-04-01T09:04:57;101691.47;;;1.08;62.75
13476;BME280;6810;63.824;20.288;2023-04-01T09:07:58;101699.31;;;1.15;62.62
13476;BME280;6810;63.824;20.288;2023-04-01T09:14:40;101687.88;;;1.34;62.57
13476;BME280;6810;63.824;20.288;2023-04-01T09:29:52;101692.72;;;1.92;61.64
13476;BME280;6810;63.824;20.288;2023-04-01T09:38:57;101692.38;;;2.34;62.07
13476;BME280;6810;63.824;20.288;2023-04-01T09:42:08;101694.84;;;2.50;60.71
13476;BME280;6810;63.824;20.288;2023-04-01T10:22:45;101684.66;;;4.67;57.78
13476;BME280;6810;63.824;20.288;2023-04-01T10:25:05;101691.31;;;4.86;58.70
13476;BME280;6810;63.824;20.288;2023-04-01T11:21:56;101649.19;;;7.54;52.38
13476;BME280;6810;63.824;20.288;2023-04-01T11:25:51;101657.66;;;7.66;51.85
13476;BME280;6810;63.824;20.288;2023-04-01T11:39:11;101660.41;;;8.17;51.01
13476;BME280;6810;63.824;20.288;2023-04-01T11:49:29;101644.94;;;8.55;50.03
13476;BME280;6810;63.824;20.288;2023-04-01T12:14:27;101628.41;;;9.41;47.68
13476;BME280;6810;63.824;20.288;2023-04-01T12:17:46;101634.97;;;9.54;47.78
13476;BME280;6810;63.824;20.288;2023-04-01T12:20:41;101638.16;;;9.64;46.73
13476;BME280;6810;63.824;20.288;2023-04-01T12:26:47;101627.56;;;9.84;46.55
13476;BME280;6810;63.824;20.288;2023-04-01T12:45:34;101634.34;;;10.34;45.40
13476;BME280;6810;63.824;20.288;2023-04-01T13:03:24;101630.56;;;10.60;42.93
13476;BME280;6810;63.824;20.288;2023-04-01T13:09:01;101632.81;;;10.69;42.72
13476;BME280;6810;63.824;20.288;2023-04-01T13:27:53;101612.84;;;10.59;41.26
13476;BME280;6810;63.824;20.288;2023-04-01T13:30:41;101627.22;;;10.75;40.62
13476;BME280;6810;63.824;20.288;2023-04-01T13:33:50;101636.09;;;10.75;40.41
13476;BME280;6810;63.824;20.288;2023-04-01T13:36:32;101632.69;;;10.72;40.52
13476;BME280;6810;63.824;20.288;2023-04-01T13:44:22;101640.38;;;10.59;39.70
13476;BME280;6810;63.824;20.288;2023-04-01T13:47:21;101587.53;;;10.28;40.34
13476;BME280;6810;63.824;20.288;2023-04-01T13:53:04;101630.22;;;10.47;40.58
13476;BME280;6810;63.824;20.288;2023-04-01T13:58:59;101618.31;;;10.35;39.70
13476;BME280;6810;63.824;20.288;2023-04-01T14:06:31;101597.28;;;10.08;39.50
13476;BME280;6810;63.824;20.288;2023-04-01T14:09:54;101632.16;;;10.23;39.74
13476;BME280;6810;63.824;20.288;2023-04-01T14:15:14;101631.53;;;10.17;39.68
13476;BME280;6810;63.824;20.288;2023-04-01T14:24:02;101637.06;;;10.12;40.58
13476;BME280;6810;63.824;20.288;2023-04-01T14:29:28;101643.56;;;10.05;40.30
13476;BME280;6810;63.824;20.288;2023-04-01T14:40:56;101651.41;;;9.87;41.06
13476;BME280;6810;63.824;20.288;2023-04-01T14:43:42;101648.81;;;9.85;41.11
13476;BME280;6810;63.824;20.288;2023-04-01T14:52:23;101624.75;;;9.44;40.68
13476;BME280;6810;63.824;20.288;2023-04-01T14:54:52;101670.03;;;9.65;40.33
13476;BME280;6810;63.824;20.288;2023-04-01T14:57:24;101673.00;;;9.58;40.09
13476;BME280;6810;63.824;20.288;2023-04-01T15:02:33;101669.88;;;9.47;37.33
13476;BME280;6810;63.824;20.288;2023-04-01T15:07:45;101672.03;;;9.37;37.87
13476;BME280;6810;63.824;20.288;2023-04-01T15:22:27;101679.22;;;9.12;39.71
13476;BME280;6810;63.824;20.288;2023-04-01T15:24:56;101682.03;;;9.08;39.27
13476;BME280;6810;63.824;20.288;2023-04-01T15:30:14;101680.56;;;8.99;39.41
13476;BME280;6810;63.824;20.288;2023-04-01T15:43:45;101693.06;;;8.72;39.85
13476;BME280;6810;63.824;20.288;2023-04-01T15:46:46;101691.47;;;8.67;40.38
13476;BME280;6810;63.824;20.288;2023-04-01T15:55:31;101698.25;;;8.51;40.17
13476;BME280;6810;63.824;20.288;2023-04-01T16:03:39;101699.47;;;8.41;40.68
13476;BME280;6810;63.824;20.288;2023-04-01T16:06:18;101701.44;;;8.36;40.66
13476;BME280;6810;63.824;20.288;2023-04-01T16:11:47;101696.34;;;8.28;41.14
13476;BME280;6810;63.824;20.288;2023-04-01T16:17:48;101693.13;;;8.19;41.09
13476;BME280;6810;63.824;20.288;2023-04-01T16:23:29;101698.00;;;8.05;41.57
13476;BME280;6810;63.824;20.288;2023-04-01T16:35:10;101720.66;;;7.87;41.80
13476;BME280;6810;63.824;20.288;2023-04-01T16:37:59;101732.16;;;7.88;42.02
13476;BME280;6810;63.824;20.288;2023-04-01T16:40:58;101735.00;;;7.82;42.04
13476;BME280;6810;63.824;20.288;2023-04-01T16:43:39;101742.22;;;7.77;42.34
13476;BME280;6810;63.824;20.288;2023-04-01T16:46:34;101746.78;;;7.73;42.73
13476;BME280;6810;63.824;20.288;2023-04-01T16:51:46;101756.81;;;7.64;42.72
13476;BME280;6810;63.824;20.288;2023-04-01T16:56:54;101758.75;;;7.57;43.41
13476;BME280;6810;63.824;20.288;2023-04-01T17:10:56;101792.97;;;7.36;45.08
13476;BME280;6810;63.824;20.288;2023-04-01T17:16:59;101816.31;;;7.23;45.14
13476;BME280;6810;63.824;20.288;2023-04-01T17:19:43;101823.63;;;7.15;44.79
13476;BME280;6810;63.824;20.288;2023-04-01T17:57:38;101905.88;;;5.98;48.92
13476;BME280;6810;63.824;20.288;2023-04-01T18:00:19;101910.53;;;5.87;48.96
13476;BME280;6810;63.824;20.288;2023-04-01T18:03:16;101922.06;;;5.83;48.96
13476;BME280;6810;63.824;20.288;2023-04-01T18:11:36;101929.63;;;5.54;50.10
13476;BME280;6810;63.824;20.288;2023-04-01T18:14:47;101944.69;;;5.50;49.80
13476;BME280;6810;63.824;20.288;2023-04-01T18:28:18;101960.28;;;5.15;50.57
13476;BME280;6810;63.824;20.288;2023-04-01T18:40:10;101986.34;;;4.83;51.20
13476;BME280;6810;63.824;20.288;2023-04-01T18:43:01;101999.63;;;4.75;52.64
13476;BME280;6810;63.824;20.288;2023-04-01T18:45:36;102003.25;;;4.68;52.36
13476;BME280;6810;63.824;20.288;2023-04-01T18:51:13;102008.78;;;4.50;52.85
13476;BME280;6810;63.824;20.288;2023-04-01T18:53:45;102018.47;;;4.50;52.96
13476;BME280;6810;63.824;20.288;2023-04-01T18:56:50;102024.75;;;4.40;53.53
13476;BME280;6810;63.824;20.288;2023-04-01T18:59:27;102030.06;;;4.38;52.49
13476;BME280;6810;63.824;20.288;2023-04-01T19:02:02;102036.28;;;4.31;52.31
13476;BME280;6810;63.824;20.288;2023-04-01T19:04:39;102051.31;;;4.26;53.34
13476;BME280;6810;63.824;20.288;2023-04-01T19:10:06;102054.06;;;4.14;54.32
13476;BME280;6810;63.824;20.288;2023-04-01T19:15:41;102067.38;;;4.02;53.70
13476;BME280;6810;63.824;20.288;2023-04-01T19:18:33;102077.97;;;3.98;53.54
13476;BME280;6810;63.824;20.288;2023-04-01T19:29:16;102099.28;;;3.77;54.03
13476;BME280;6810;63.824;20.288;2023-04-01T19:37:41;102124.06;;;3.56;55.27
13476;BME280;6810;63.824;20.288;2023-04-01T19:40:42;102123.22;;;3.51;54.49
13476;BME280;6810;63.824;20.288;2023-04-01T19:43:36;102139.03;;;3.49;55.99
13476;BME280;6810;63.824;20.288;2023-04-01T19:46:34;102137.31;;;3.44;55.86
13476;BME280;6810;63.824;20.288;2023-04-01T19:49:25;102146.13;;;3.40;55.10
13476;BME280;6810;63.824;20.288;2023-04-01T19:52:13;102153.19;;;3.32;55.04
13476;BME280;6810;63.824;20.288;2023-04-01T20:02:39;102175.25;;;3.17;56.65
13476;BME280;6810;63.824;20.288;2023-04-01T20:08:45;102119.28;;;2.70;55.73
13476;BME280;6810;63.824;20.288;2023-04-01T20:14:08;102189.34;;;2.97;56.73
13476;BME280;6810;63.824;20.288;2023-04-01T20:16:59;102179.78;;;2.82;56.65
13476;BME280;6810;63.824;20.288;2023-04-01T20:19:33;102200.81;;;2.90;55.65
13476;BME280;6810;63.824;20.288;2023-04-01T20:22:05;102208.72;;;2.84;57.05
13476;BME280;6810;63.824;20.288;2023-04-01T20:24:44;102205.22;;;2.79;56.11
13476;BME280;6810;63.824;20.288;2023-04-01T20:32:28;102228.06;;;2.66;56.34
13476;BME280;6810;63.824;20.288;2023-04-01T20:40:32;102247.38;;;2.55;56.59
13476;BME280;6810;63.824;20.288;2023-04-01T20:45:52;102262.31;;;2.45;57.49
13476;BME280;6810;63.824;20.288;2023-04-01T20:51:21;102268.47;;;2.37;57.72
13476;BME280;6810;63.824;20.288;2023-04-01T20:59:21;102274.56;;;2.24;57.32
13476;BME280;6810;63.824;20.288;2023-04-01T21:02:22;102269.31;;;2.13;58.06
13476;BME280;6810;63.824;20.288;2023-04-01T21:07:58;102258.78;;;1.94;57.62
13476;BME280;6810;63.824;20.288;2023-04-01T21:10:37;102288.59;;;2.06;57.37
13476;BME280;6810;63.824;20.288;2023-04-01T21:13:24;102288.59;;;2.02;57.72
13476;BME280;6810;63.824;20.288;2023-04-01T21:21:46;102314.84;;;1.90;58.00
13476;BME280;6810;63.824;20.288;2023-04-01T21:27:16;102318.31;;;1.81;58.26
13476;BME280;6810;63.824;20.288;2023-04-01T21:48:52;102365.53;;;1.54;58.25
13476;BME280;6810;63.824;20.288;2023-04-01T21:59:52;102389.94;;;1.38;58.84
13476;BME280;6810;63.824;20.288;2023-04-01T22:05:12;102404.81;;;1.33;58.72
13476;BME280;6810;63.824;20.288;2023-04-01T22:19:16;102425.69;;;1.15;58.90
13476;BME280;6810;63.824;20.288;2023-04-01T22:22:02;102431.78;;;1.11;59.24
13476;BME280;6810;63.824;20.288;2023-04-01T22:27:22;102445.78;;;1.07;58.77
13476;BME280;6810;63.824;20.288;2023-04-01T22:30:12;102443.09;;;0.99;58.78
13476;BME280;6810;63.824;20.288;2023-04-01T22:32:45;102457.97;;;1.02;59.22
13476;BME280;6810;63.824;20.288;2023-04-01T22:38:15;102462.28;;;0.95;58.81
13476;BME280;6810;63.824;20.288;2023-04-01T22:43:43;102482.34;;;0.90;59.05
13476;BME280;6810;63.824;20.288;2023-04-01T22:49:12;102488.44;;;0.85;58.69
13476;BME280;6810;63.824;20.288;2023-04-01T22:52:12;102501.53;;;0.82;58.45
13476;BME280;6810;63.824;20.288;2023-04-01T22:54:46;102472.41;;;0.58;58.73
13476;BME280;6810;63.824;20.288;2023-04-01T23:00:06;102513.69;;;0.75;58.71
13476;BME280;6810;63.824;20.288;2023-04-01T23:02:42;102460.81;;;0.36;58.42
13476;BME280;6810;63.824;20.288;2023-04-01T23:05:14;102487.22;;;0.51;58.60
13476;BME280;6810;63.824;20.288;2023-04-01T23:07:58;102532.88;;;0.70;58.56
13476;BME280;6810;63.824;20.288;2023-04-01T23:10:44;102543.38;;;0.68;58.40
13476;BME280;6810;63.824;20.288;2023-04-01T23:13:35;102483.47;;;0.31;58.19
13476;BME280;6810;63.824;20.288;2023-04-01T23:16:05;102544.22;;;0.64;58.35
13476;BME280;6810;63.824;20.288;2023-04-01T23:21:18;102558.13;;;0.60;58.33
13476;BME280;6810;63.824;20.288;2023-04-01T23:27:11;102521.91;;;0.29;58.17
13476;BME280;6810;63.824;20.288;2023-04-01T23:29:39;102573.78;;;0.53;58.32
13476;BME280;6810;63.824;20.288;2023-04-01T23:32:15;102555.28;;;0.41;58.79
13476;BME280;6810;63.824;20.288;2023-04-01T23:34:49;102564.97;;;0.48;58.78
13476;BME280;6810;63.824;20.288;2023-04-01T23:37:17;102582.44;;;0.46;58.37
13476;BME280;6810;63.824;20.288;2023-04-01T23:39:51;102587.66;;;0.43;58.35
13476;BME280;6810;63.824;20.288;2023-04-01T23:42:25;102591.97;;;0.39;58.41
13476;BME280;6810;63.824;20.288;2023-04-01T23:44:57;102576.91;;;0.25;58.68
13476;BME280;6810;63.824;20.288;2023-04-01T23:47:36;102606.81;;;0.39;58.35
13476;BME280;6810;63.824;20.288;2023-04-01T23:50:13;102600.66;;;0.35;58.37
13476;BME280;6810;63.824;20.288;2023-04-01T23:52:48;102610.25;;;0.33;58.04
13476;BME280;6810;63.824;20.288;2023-04-01T23:55:31;102618.06;;;0.30;58.06
13476;BME280;6810;63.824;20.288;2023-04-01T23:58:23;102615.41;;;0.27;57.99
